Breckenridge, TX

9:45 AM CDT on October 23, 2014 (GMT -0500)
Stephens County | Change Station
CLOSE
Current Station
Airport
Location: Breckenridge,
Elevation: 1283 ft
Nearby Weather Stations

Elev 1283 ft 32.72 °N, 98.89 °W | Updated 50 minutes ago

Haze
Haze
67 °F
Feels Like 67 °F
N
4
Wind Variable Wind from SSE

Today
High -- | Low -- °F
--% Chance of Precip.
Yesterday
High -- | Low -- °F
Precip. -- in
7:45 AM 6:53 PM
Waning Crescent, 0% visible
Pressure 30.13 in
Visibility 5.0 miles
Clouds Overcast 5500 ft
Dew Point 58 °F
Humidity 73%
Rainfall 0.00 in
Snow Depth Not available.
UV 0 out of 12
Pollen 5.90 out of 12
Air Quality Not available.
Flu Activity Sporadic
METAR KBKD 231355Z AUTO 16003KT 5SM HZ OVC055 20/15 A3013 RMK AO2 T01950146

More Conditions Fewer Conditions

Pressure 30.13 in
Visibility 5.0 miles
Clouds Overcast 5500 ft
Dew Point 58 °F
Humidity 73%
Rainfall 0.00 in
Snow Depth Not available.
UV 0 out of 12
Pollen 5.90 out of 12
Air Quality Not available.
Flu Activity Sporadic
METAR KBKD 231355Z AUTO 16003KT 5SM HZ OVC055 20/15 A3013 RMK AO2 T01950146

More Conditions Fewer Conditions

Nowcast | as of 9:07 am CDT on October 23, 2014

Widely scattered areas of light rain will continue across parts of East Texas this morning. The best chance of sprinkles through late morning will be around Paris...Sulphur Springs...Canton...and Palestine. In areas that receive rain...there will barely be enough to wet the ground. Across the rest of north and central Texas...skies will be mostly cloudy this morning. Skies will gradually clear from west to east starting early this afternoon. Midday temperatures will generally be in the 70s with light southeast winds.

×

10-Day Weather Forecast

Almanac

Astronomy

Oct. 23, 2014 Rise Set
Actual Time 7:45 AM CDT 6:53 PM CDT
Civil Twilight 7:20 AM CDT 7:18 PM CDT
Nautical Twilight 6:51 AM CDT 7:47 PM CDT
Astronomical Twilight 6:23 AM CDT 8:15 PM CDT
Moon 7:28 AM CDT 6:56 PM CDT
Length of Visible Light 11h 57m
Length of Day
11h 07m
Tomorrow will be 1m 52s shorter.
Waning Crescent, 0% of the Moon is Illuminated
Today
Waning Crescent
Oct 23
New
Oct 30
First Quarter
Nov 6
Full
Nov 14
Last Quarter

Today's Extremes

State Highs State Lows

Community

WunderPhotos

Upload Photos

1,764,272 photos uploaded!

WunderBlogs® & News

Nearby

Snow Depth

Station Depth Elevation
No new snow has been reported.

Earthquake Activity

City Distance Mag. Time & Date
No recent earthquake activity has been reported nearby.
Minimum magnitude displayed is 2.5.

Coastal Water Temperatures

Place Temperature
No Stations Reporting

Nearby Weather Stations